Weather at Amman Civil (Marka International) Airport

Public forecast

Using degrees Celsius for public forecast. Weather courtesy of forecast.io.

Current aviation weather report (METAR) for Amman Civil (Marka International) Airport

2022/12/05 14:00 (retrieved 58 minutes ago)

OJAM 051400Z VRB02KT 4000 HZ FEW035 BKN080 16/08 Q1019 NOSIG

Aviation forecast (TAF) for Amman Civil (Marka International) Airport

2022/12/05 12:15 (retrieved 3 hours ago)

TAF OJAM 051100Z 0512/0618 11008KT 3000 HZ SCT035 SCT040 TEMPO 0512/0518 -RA BECMG 0512/0514 28010KT PROB30 0601/0607 1500 BR